sensor_id;sensor_type;location;lat;lon;timestamp;pressure;altitude;pressure_sealevel;temperature;humidity
17635;BME280;8936;49.010;12.120;2023-04-25T00:00:51;97222.59;;;14.22;98.98
17635;BME280;8936;49.010;12.120;2023-04-25T00:03:18;97229.06;;;14.21;98.40
17635;BME280;8936;49.010;12.120;2023-04-25T00:05:44;97229.19;;;14.16;98.59
17635;BME280;8936;49.010;12.120;2023-04-25T00:08:11;97224.06;;;13.78;100.00
17635;BME280;8936;49.010;12.120;2023-04-25T00:10:39;97227.75;;;12.95;100.00
17635;BME280;8936;49.010;12.120;2023-04-25T00:13:05;97217.19;;;12.72;100.00
17635;BME280;8936;49.010;12.120;2023-04-25T00:15:33;97221.31;;;12.64;100.00
17635;BME280;8936;49.010;12.120;2023-04-25T00:18:01;97216.72;;;12.97;100.00
17635;BME280;8936;49.010;12.120;2023-04-25T00:20:27;97217.44;;;13.21;100.00
17635;BME280;8936;49.010;12.120;2023-04-25T00:22:55;97218.31;;;13.44;100.00
17635;BME280;8936;49.010;12.120;2023-04-25T00:25:21;97221.00;;;13.58;100.00
17635;BME280;8936;49.010;12.120;2023-04-25T00:27:49;97219.50;;;13.65;100.00
17635;BME280;8936;49.010;12.120;2023-04-25T00:30:15;97218.31;;;13.71;100.00
17635;BME280;8936;49.010;12.120;2023-04-25T00:32:41;97225.25;;;13.72;100.00
17635;BME280;8936;49.010;12.120;2023-04-25T00:35:08;97214.41;;;13.77;100.00
17635;BME280;8936;49.010;12.120;2023-04-25T00:37:35;97215.13;;;13.83;100.00
17635;BME280;8936;49.010;12.120;2023-04-25T00:40:01;97224.88;;;13.51;100.00
17635;BME280;8936;49.010;12.120;2023-04-25T00:42:31;97215.25;;;13.50;100.00
17635;BME280;8936;49.010;12.120;2023-04-25T00:44:59;97221.00;;;13.58;100.00
17635;BME280;8936;49.010;12.120;2023-04-25T00:47:26;97218.31;;;13.30;100.00
17635;BME280;8936;49.010;12.120;2023-04-25T00:49:54;97218.72;;;13.51;100.00
17635;BME280;8936;49.010;12.120;2023-04-25T00:52:20;97216.09;;;13.19;100.00
17635;BME280;8936;49.010;12.120;2023-04-25T00:54:46;97208.66;;;13.16;100.00
17635;BME280;8936;49.010;12.120;2023-04-25T00:57:13;97207.06;;;12.69;100.00
17635;BME280;8936;49.010;12.120;2023-04-25T00:59:39;97212.84;;;12.57;100.00
17635;BME280;8936;49.010;12.120;2023-04-25T01:02:10;97203.63;;;12.63;100.00
17635;BME280;8936;49.010;12.120;2023-04-25T01:04:37;97202.25;;;12.66;100.00
17635;BME280;8936;49.010;12.120;2023-04-25T01:07:03;97205.97;;;12.51;100.00
17635;BME280;8936;49.010;12.120;2023-04-25T01:09:30;97205.22;;;12.32;100.00
17635;BME280;8936;49.010;12.120;2023-04-25T01:11:56;97209.38;;;12.57;100.00
17635;BME280;8936;49.010;12.120;2023-04-25T01:14:23;97203.97;;;12.43;100.00
17635;BME280;8936;49.010;12.120;2023-04-25T01:16:50;97202.75;;;12.17;100.00
17635;BME280;8936;49.010;12.120;2023-04-25T01:19:19;97200.72;;;11.90;100.00
17635;BME280;8936;49.010;12.120;2023-04-25T01:21:47;97210.16;;;12.25;100.00
17635;BME280;8936;49.010;12.120;2023-04-25T01:24:13;97210.34;;;12.47;100.00
17635;BME280;8936;49.010;12.120;2023-04-25T01:26:40;97206.25;;;12.68;100.00
17635;BME280;8936;49.010;12.120;2023-04-25T01:29:09;97214.94;;;12.92;100.00
17635;BME280;8936;49.010;12.120;2023-04-25T01:31:36;97205.16;;;12.37;100.00
17635;BME280;8936;49.010;12.120;2023-04-25T01:34:02;97210.63;;;12.45;100.00
17635;BME280;8936;49.010;12.120;2023-04-25T01:36:29;97216.06;;;12.59;100.00
17635;BME280;8936;49.010;12.120;2023-04-25T01:38:56;97210.25;;;12.84;100.00
17635;BME280;8936;49.010;12.120;2023-04-25T01:41:23;97215.06;;;13.01;100.00
17635;BME280;8936;49.010;12.120;2023-04-25T01:43:49;97219.75;;;13.09;100.00
17635;BME280;8936;49.010;12.120;2023-04-25T01:46:16;97219.47;;;12.78;100.00
17635;BME280;8936;49.010;12.120;2023-04-25T01:48:42;97214.75;;;12.89;100.00
17635;BME280;8936;49.010;12.120;2023-04-25T01:51:09;97210.94;;;12.76;100.00
17635;BME280;8936;49.010;12.120;2023-04-25T01:53:36;97211.56;;;12.87;100.00
17635;BME280;8936;49.010;12.120;2023-04-25T01:56:05;97218.22;;;13.03;100.00
17635;BME280;8936;49.010;12.120;2023-04-25T01:58:31;97210.16;;;13.08;100.00
17635;BME280;8936;49.010;12.120;2023-04-25T02:00:58;97214.97;;;13.06;100.00
17635;BME280;8936;49.010;12.120;2023-04-25T02:03:24;97220.38;;;13.20;100.00
17635;BME280;8936;49.010;12.120;2023-04-25T02:05:50;97205.50;;;13.27;100.00
17635;BME280;8936;49.010;12.120;2023-04-25T02:08:17;97203.81;;;13.31;100.00
17635;BME280;8936;49.010;12.120;2023-04-25T02:10:43;97204.19;;;13.25;100.00
17635;BME280;8936;49.010;12.120;2023-04-25T02:13:11;97205.00;;;13.25;100.00
17635;BME280;8936;49.010;12.120;2023-04-25T02:15:37;97196.34;;;13.15;100.00
17635;BME280;8936;49.010;12.120;2023-04-25T02:18:04;97197.00;;;13.07;100.00
17635;BME280;8936;49.010;12.120;2023-04-25T02:20:31;97194.06;;;12.76;100.00
17635;BME280;8936;49.010;12.120;2023-04-25T02:22:57;97202.91;;;12.76;100.00
17635;BME280;8936;49.010;12.120;2023-04-25T02:25:24;97198.88;;;12.92;100.00
17635;BME280;8936;49.010;12.120;2023-04-25T02:27:50;97191.63;;;13.07;100.00
17635;BME280;8936;49.010;12.120;2023-04-25T02:30:18;97198.78;;;12.97;100.00
17635;BME280;8936;49.010;12.120;2023-04-25T02:32:45;97199.56;;;12.98;100.00
17635;BME280;8936;49.010;12.120;2023-04-25T02:35:11;97190.56;;;12.62;100.00
17635;BME280;8936;49.010;12.120;2023-04-25T02:37:38;97192.78;;;12.73;100.00
17635;BME280;8936;49.010;12.120;2023-04-25T02:40:05;97190.63;;;12.89;100.00
17635;BME280;8936;49.010;12.120;2023-04-25T02:42:32;97187.63;;;12.90;100.00
17635;BME280;8936;49.010;12.120;2023-04-25T02:44:58;97175.34;;;12.89;100.00
17635;BME280;8936;49.010;12.120;2023-04-25T02:47:26;97180.88;;;12.79;100.00
17635;BME280;8936;49.010;12.120;2023-04-25T02:49:52;97180.38;;;12.77;100.00
17635;BME280;8936;49.010;12.120;2023-04-25T02:52:19;97174.84;;;12.55;100.00
17635;BME280;8936;49.010;12.120;2023-04-25T02:54:46;97170.25;;;12.42;100.00
17635;BME280;8936;49.010;12.120;2023-04-25T02:57:12;97173.19;;;12.59;100.00
17635;BME280;8936;49.010;12.120;2023-04-25T02:59:38;97163.38;;;12.36;100.00
17635;BME280;8936;49.010;12.120;2023-04-25T03:02:05;97167.91;;;12.54;100.00
17635;BME280;8936;49.010;12.120;2023-04-25T03:04:32;97165.38;;;12.76;100.00
17635;BME280;8936;49.010;12.120;2023-04-25T03:06:59;97169.72;;;12.72;100.00
17635;BME280;8936;49.010;12.120;2023-04-25T03:09:26;97171.22;;;12.78;100.00
17635;BME280;8936;49.010;12.120;2023-04-25T03:11:52;97161.44;;;12.87;100.00
17635;BME280;8936;49.010;12.120;2023-04-25T03:14:18;97156.66;;;12.84;100.00
17635;BME280;8936;49.010;12.120;2023-04-25T03:16:45;97160.03;;;12.76;100.00
17635;BME280;8936;49.010;12.120;2023-04-25T03:19:11;97157.66;;;12.75;100.00
17635;BME280;8936;49.010;12.120;2023-04-25T03:21:39;97151.13;;;12.81;100.00
17635;BME280;8936;49.010;12.120;2023-04-25T03:24:05;97153.09;;;12.89;100.00
17635;BME280;8936;49.010;12.120;2023-04-25T03:26:32;97153.72;;;12.99;100.00
17635;BME280;8936;49.010;12.120;2023-04-25T03:28:58;97154.22;;;13.02;100.00
17635;BME280;8936;49.010;12.120;2023-04-25T03:31:24;97152.34;;;13.02;100.00
17635;BME280;8936;49.010;12.120;2023-04-25T03:33:51;97153.72;;;12.99;100.00
17635;BME280;8936;49.010;12.120;2023-04-25T03:36:17;97146.16;;;12.88;100.00
17635;BME280;8936;49.010;12.120;2023-04-25T03:38:46;97145.56;;;12.91;100.00
17635;BME280;8936;49.010;12.120;2023-04-25T03:41:13;97148.72;;;12.79;100.00
17635;BME280;8936;49.010;12.120;2023-04-25T03:43:39;97159.41;;;12.66;100.00
17635;BME280;8936;49.010;12.120;2023-04-25T03:46:06;97154.28;;;12.37;100.00
17635;BME280;8936;49.010;12.120;2023-04-25T03:48:32;97157.50;;;12.53;100.00
17635;BME280;8936;49.010;12.120;2023-04-25T03:50:58;97158.00;;;12.55;100.00
17635;BME280;8936;49.010;12.120;2023-04-25T03:53:25;97153.44;;;12.55;100.00
17635;BME280;8936;49.010;12.120;2023-04-25T03:55:52;97162.06;;;12.52;100.00
17635;BME280;8936;49.010;12.120;2023-04-25T03:58:19;97160.47;;;12.51;100.00
17635;BME280;8936;49.010;12.120;2023-04-25T04:00:45;97158.22;;;12.58;100.00
17635;BME280;8936;49.010;12.120;2023-04-25T04:03:12;97157.81;;;12.65;100.00
17635;BME280;8936;49.010;12.120;2023-04-25T04:05:38;97170.31;;;12.69;100.00
17635;BME280;8936;49.010;12.120;2023-04-25T04:08:05;97154.25;;;12.69;100.00
17635;BME280;8936;49.010;12.120;2023-04-25T04:10:32;97163.59;;;12.72;100.00
17635;BME280;8936;49.010;12.120;2023-04-25T04:12:59;97154.56;;;12.81;100.00
17635;BME280;8936;49.010;12.120;2023-04-25T04:15:26;97165.28;;;12.81;100.00
17635;BME280;8936;49.010;12.120;2023-04-25T04:17:52;97149.41;;;12.85;100.00
17635;BME280;8936;49.010;12.120;2023-04-25T04:20:19;97154.78;;;12.85;100.00
17635;BME280;8936;49.010;12.120;2023-04-25T04:22:46;97158.94;;;12.77;100.00
17635;BME280;8936;49.010;12.120;2023-04-25T04:25:12;97154.19;;;12.74;100.00
17635;BME280;8936;49.010;12.120;2023-04-25T04:27:38;97151.34;;;12.66;100.00
17635;BME280;8936;49.010;12.120;2023-04-25T04:30:08;97156.75;;;12.79;100.00
17635;BME280;8936;49.010;12.120;2023-04-25T04:32:35;97154.88;;;12.80;100.00
17635;BME280;8936;49.010;12.120;2023-04-25T04:35:02;97151.72;;;12.78;100.00
17635;BME280;8936;49.010;12.120;2023-04-25T04:37:29;97151.28;;;12.71;100.00
17635;BME280;8936;49.010;12.120;2023-04-25T04:39:56;97151.25;;;12.57;100.00
17635;BME280;8936;49.010;12.120;2023-04-25T04:42:22;97152.50;;;12.46;100.00
17635;BME280;8936;49.010;12.120;2023-04-25T04:44:49;97152.34;;;12.56;100.00
17635;BME280;8936;49.010;12.120;2023-04-25T04:47:18;97154.13;;;12.47;100.00
17635;BME280;8936;49.010;12.120;2023-04-25T04:49:45;97152.50;;;12.46;100.00
17635;BME280;8936;49.010;12.120;2023-04-25T04:52:11;97144.19;;;12.48;100.00
17635;BME280;8936;49.010;12.120;2023-04-25T04:54:37;97156.66;;;12.20;100.00
17635;BME280;8936;49.010;12.120;2023-04-25T04:57:04;97156.16;;;12.36;100.00
17635;BME280;8936;49.010;12.120;2023-04-25T04:59:30;97156.25;;;12.13;100.00
17635;BME280;8936;49.010;12.120;2023-04-25T05:01:57;97150.97;;;11.89;100.00
17635;BME280;8936;49.010;12.120;2023-04-25T05:04:25;97153.06;;;12.11;100.00
17635;BME280;8936;49.010;12.120;2023-04-25T05:06:53;97143.63;;;12.32;100.00
17635;BME280;8936;49.010;12.120;2023-04-25T05:09:19;97147.31;;;12.36;100.00
17635;BME280;8936;49.010;12.120;2023-04-25T05:11:46;97144.31;;;11.86;100.00
17635;BME280;8936;49.010;12.120;2023-04-25T05:14:12;97152.41;;;11.39;100.00
17635;BME280;8936;49.010;12.120;2023-04-25T05:16:38;97145.78;;;11.55;100.00
17635;BME280;8936;49.010;12.120;2023-04-25T05:19:05;97149.97;;;11.43;100.00
17635;BME280;8936;49.010;12.120;2023-04-25T05:21:32;97152.16;;;11.59;100.00
17635;BME280;8936;49.010;12.120;2023-04-25T05:23:59;97150.03;;;11.80;100.00
17635;BME280;8936;49.010;12.120;2023-04-25T05:26:26;97152.44;;;11.81;100.00
17635;BME280;8936;49.010;12.120;2023-04-25T05:28:55;97151.75;;;11.71;100.00
17635;BME280;8936;49.010;12.120;2023-04-25T05:31:22;97152.84;;;11.88;100.00
17635;BME280;8936;49.010;12.120;2023-04-25T05:33:48;97151.50;;;12.10;100.00
17635;BME280;8936;49.010;12.120;2023-04-25T05:36:14;97158.50;;;11.87;100.00
17635;BME280;8936;49.010;12.120;2023-04-25T05:38:42;97150.03;;;11.99;100.00
17635;BME280;8936;49.010;12.120;2023-04-25T05:41:09;97153.16;;;11.87;100.00
17635;BME280;8936;49.010;12.120;2023-04-25T05:43:35;97150.69;;;11.90;100.00
17635;BME280;8936;49.010;12.120;2023-04-25T05:46:01;97162.19;;;12.10;100.00
17635;BME280;8936;49.010;12.120;2023-04-25T05:48:28;97154.66;;;12.12;100.00
17635;BME280;8936;49.010;12.120;2023-04-25T05:50:55;97155.69;;;12.16;100.00
17635;BME280;8936;49.010;12.120;2023-04-25T05:53:21;97147.41;;;12.31;100.00
17635;BME280;8936;49.010;12.120;2023-04-25T05:55:49;97156.97;;;12.51;100.00
17635;BME280;8936;49.010;12.120;2023-04-25T05:58:15;97153.66;;;12.59;100.00
17635;BME280;8936;49.010;12.120;2023-04-25T06:00:42;97148.63;;;12.84;100.00
17635;BME280;8936;49.010;12.120;2023-04-25T06:03:08;97145.94;;;12.71;100.00
17635;BME280;8936;49.010;12.120;2023-04-25T06:05:35;97148.72;;;12.79;100.00
17635;BME280;8936;49.010;12.120;2023-04-25T06:08:01;97145.34;;;12.87;100.00
17635;BME280;8936;49.010;12.120;2023-04-25T06:10:28;97147.16;;;12.92;100.00
17635;BME280;8936;49.010;12.120;2023-04-25T06:12:56;97148.72;;;12.79;100.00
17635;BME280;8936;49.010;12.120;2023-04-25T06:15:22;97156.59;;;12.89;100.00
17635;BME280;8936;49.010;12.120;2023-04-25T06:17:48;97143.38;;;13.07;100.00
17635;BME280;8936;49.010;12.120;2023-04-25T06:20:15;97146.41;;;13.19;100.00
17635;BME280;8936;49.010;12.120;2023-04-25T06:22:41;97146.78;;;12.98;100.00
17635;BME280;8936;49.010;12.120;2023-04-25T06:25:07;97147.16;;;12.92;100.00
17635;BME280;8936;49.010;12.120;2023-04-25T06:27:34;97141.50;;;12.93;100.00
17635;BME280;8936;49.010;12.120;2023-04-25T06:30:02;97141.69;;;12.97;100.00
17635;BME280;8936;49.010;12.120;2023-04-25T06:32:29;97130.84;;;13.21;100.00
17635;BME280;8936;49.010;12.120;2023-04-25T06:34:55;97138.44;;;13.41;100.00
17635;BME280;8936;49.010;12.120;2023-04-25T06:37:22;97133.09;;;13.55;100.00
17635;BME280;8936;49.010;12.120;2023-04-25T06:39:49;97129.81;;;13.58;100.00
17635;BME280;8936;49.010;12.120;2023-04-25T06:42:15;97122.97;;;13.51;100.00
17635;BME280;8936;49.010;12.120;2023-04-25T06:44:42;97130.06;;;13.70;100.00
17635;BME280;8936;49.010;12.120;2023-04-25T06:47:09;97130.09;;;13.56;100.00
17635;BME280;8936;49.010;12.120;2023-04-25T06:49:36;97129.81;;;13.44;100.00
17635;BME280;8936;49.010;12.120;2023-04-25T06:52:02;97129.81;;;13.44;100.00
17635;BME280;8936;49.010;12.120;2023-04-25T06:54:28;97133.19;;;13.22;100.00
17635;BME280;8936;49.010;12.120;2023-04-25T06:56:55;97132.50;;;13.17;100.00
17635;BME280;8936;49.010;12.120;2023-04-25T06:59:21;97134.41;;;13.30;100.00
17635;BME280;8936;49.010;12.120;2023-04-25T07:01:48;97131.91;;;13.33;100.00
17635;BME280;8936;49.010;12.120;2023-04-25T07:04:16;97130.59;;;13.44;100.00
17635;BME280;8936;49.010;12.120;2023-04-25T07:06:42;97128.72;;;13.45;100.00
17635;BME280;8936;49.010;12.120;2023-04-25T07:09:08;97135.09;;;13.49;100.00
17635;BME280;8936;49.010;12.120;2023-04-25T07:11:35;97127.84;;;13.36;100.00
17635;BME280;8936;49.010;12.120;2023-04-25T07:14:01;97139.44;;;13.45;100.00
17635;BME280;8936;49.010;12.120;2023-04-25T07:16:28;97143.84;;;13.27;100.00
17635;BME280;8936;49.010;12.120;2023-04-25T07:18:54;97141.03;;;13.19;100.00
17635;BME280;8936;49.010;12.120;2023-04-25T07:21:22;97148.53;;;13.03;100.00
17635;BME280;8936;49.010;12.120;2023-04-25T07:23:48;97137.53;;;13.05;100.00
17635;BME280;8936;49.010;12.120;2023-04-25T07:26:15;97153.31;;;13.06;100.00
17635;BME280;8936;49.010;12.120;2023-04-25T07:28:41;97136.88;;;13.13;100.00
17635;BME280;8936;49.010;12.120;2023-04-25T07:31:08;97132.91;;;13.24;100.00
17635;BME280;8936;49.010;12.120;2023-04-25T07:33:35;97128.94;;;13.21;100.00
17635;BME280;8936;49.010;12.120;2023-04-25T07:36:01;97130.53;;;13.36;100.00
17635;BME280;8936;49.010;12.120;2023-04-25T07:38:29;97139.06;;;13.24;100.00
17635;BME280;8936;49.010;12.120;2023-04-25T07:40:55;97134.09;;;13.18;100.00
17635;BME280;8936;49.010;12.120;2023-04-25T07:43:21;97136.78;;;13.18;100.00
17635;BME280;8936;49.010;12.120;2023-04-25T07:45:48;97135.00;;;13.27;100.00
17635;BME280;8936;49.010;12.120;2023-04-25T07:48:16;97136.19;;;13.21;100.00
17635;BME280;8936;49.010;12.120;2023-04-25T07:50:42;97149.78;;;13.11;100.00
17635;BME280;8936;49.010;12.120;2023-04-25T07:53:09;97134.69;;;13.15;100.00
17635;BME280;8936;49.010;12.120;2023-04-25T07:55:36;97149.56;;;13.07;100.00
17635;BME280;8936;49.010;12.120;2023-04-25T07:58:05;97141.81;;;13.06;100.00
17635;BME280;8936;49.010;12.120;2023-04-25T08:00:31;97135.19;;;13.17;100.00
17635;BME280;8936;49.010;12.120;2023-04-25T08:02:57;97141.25;;;13.22;100.00
17635;BME280;8936;49.010;12.120;2023-04-25T08:05:24;97135.47;;;13.02;100.00
17635;BME280;8936;49.010;12.120;2023-04-25T08:07:50;97135.47;;;13.29;100.00
17635;BME280;8936;49.010;12.120;2023-04-25T08:10:16;97134.28;;;13.35;99.99
17635;BME280;8936;49.010;12.120;2023-04-25T08:12:44;97130.91;;;13.29;100.00
17635;BME280;8936;49.010;12.120;2023-04-25T08:15:11;97135.16;;;13.44;96.27
17635;BME280;8936;49.010;12.120;2023-04-25T08:17:38;97135.75;;;13.55;98.77
17635;BME280;8936;49.010;12.120;2023-04-25T08:20:05;97140.41;;;13.63;96.03
17635;BME280;8936;49.010;12.120;2023-04-25T08:22:32;97128.09;;;13.62;93.08
17635;BME280;8936;49.010;12.120;2023-04-25T08:24:59;97129.00;;;13.57;94.90
17635;BME280;8936;49.010;12.120;2023-04-25T08:27:25;97131.00;;;13.51;96.66
17635;BME280;8936;49.010;12.120;2023-04-25T08:29:53;97133.28;;;13.44;91.88
17635;BME280;8936;49.010;12.120;2023-04-25T08:32:19;97131.91;;;13.33;95.69
17635;BME280;8936;49.010;12.120;2023-04-25T08:34:46;97124.03;;;13.50;92.38
17635;BME280;8936;49.010;12.120;2023-04-25T08:37:12;97123.16;;;13.41;96.36
17635;BME280;8936;49.010;12.120;2023-04-25T08:39:38;97137.72;;;13.63;94.72
17635;BME280;8936;49.010;12.120;2023-04-25T08:42:06;97137.66;;;13.54;95.89
17635;BME280;8936;49.010;12.120;2023-04-25T08:44:33;97142.63;;;13.47;93.29
17635;BME280;8936;49.010;12.120;2023-04-25T08:47:01;97140.72;;;13.61;89.53
17635;BME280;8936;49.010;12.120;2023-04-25T08:49:29;97145.50;;;13.50;89.23
17635;BME280;8936;49.010;12.120;2023-04-25T08:51:56;97142.41;;;13.57;87.21
17635;BME280;8936;49.010;12.120;2023-04-25T08:54:25;97150.75;;;13.56;91.15
17635;BME280;8936;49.010;12.120;2023-04-25T08:56:54;97145.09;;;13.71;91.11
17635;BME280;8936;49.010;12.120;2023-04-25T08:59:20;97154.91;;;13.75;88.11
17635;BME280;8936;49.010;12.120;2023-04-25T09:01:47;97154.78;;;13.80;91.25
17635;BME280;8936;49.010;12.120;2023-04-25T09:04:14;97157.25;;;13.90;88.91
17635;BME280;8936;49.010;12.120;2023-04-25T09:06:41;97155.91;;;13.79;91.24
17635;BME280;8936;49.010;12.120;2023-04-25T09:09:08;97158.16;;;13.86;90.11
17635;BME280;8936;49.010;12.120;2023-04-25T09:11:36;97168.91;;;13.72;90.94
17635;BME280;8936;49.010;12.120;2023-04-25T09:14:12;97165.06;;;13.65;91.21
17635;BME280;8936;49.010;12.120;2023-04-25T09:16:57;97170.31;;;13.56;92.78
17635;BME280;8936;49.010;12.120;2023-04-25T09:19:26;97169.72;;;13.59;92.92
17635;BME280;8936;49.010;12.120;2023-04-25T09:21:53;97172.03;;;13.52;94.73
17635;BME280;8936;49.010;12.120;2023-04-25T09:24:20;97176.31;;;13.39;97.66
17635;BME280;8936;49.010;12.120;2023-04-25T09:26:55;97177.09;;;13.26;100.00
17635;BME280;8936;49.010;12.120;2023-04-25T09:29:24;97177.69;;;13.37;100.00
17635;BME280;8936;49.010;12.120;2023-04-25T09:31:57;97192.88;;;13.28;100.00
17635;BME280;8936;49.010;12.120;2023-04-25T09:34:39;97198.44;;;13.31;100.00
17635;BME280;8936;49.010;12.120;2023-04-25T09:37:06;97198.53;;;13.53;100.00
17635;BME280;8936;49.010;12.120;2023-04-25T09:39:33;97203.63;;;13.55;100.00
17635;BME280;8936;49.010;12.120;2023-04-25T09:42:00;97205.41;;;13.60;100.00
17635;BME280;8936;49.010;12.120;2023-04-25T09:44:26;97206.19;;;13.60;100.00
17635;BME280;8936;49.010;12.120;2023-04-25T09:46:53;97201.13;;;13.59;100.00
17635;BME280;8936;49.010;12.120;2023-04-25T09:49:19;97194.03;;;13.90;100.00
17635;BME280;8936;49.010;12.120;2023-04-25T09:51:54;97202.66;;;14.00;99.97
17635;BME280;8936;49.010;12.120;2023-04-25T09:54:21;97219.09;;;13.85;100.00
17635;BME280;8936;49.010;12.120;2023-04-25T09:56:48;97207.97;;;13.78;100.00
17635;BME280;8936;49.010;12.120;2023-04-25T09:59:14;97223.28;;;13.78;100.00
17635;BME280;8936;49.010;12.120;2023-04-25T10:01:41;97218.31;;;13.44;100.00
17635;BME280;8936;49.010;12.120;2023-04-25T10:04:10;97229.34;;;13.42;100.00
17635;BME280;8936;49.010;12.120;2023-04-25T10:06:37;97220.97;;;13.17;100.00
17635;BME280;8936;49.010;12.120;2023-04-25T10:09:05;97216.09;;;13.19;100.00
17635;BME280;8936;49.010;12.120;2023-04-25T10:11:33;97220.09;;;13.35;100.00
17635;BME280;8936;49.010;12.120;2023-04-25T10:14:00;97216.63;;;13.48;100.00
17635;BME280;8936;49.010;12.120;2023-04-25T10:16:27;97217.44;;;13.48;100.00
17635;BME280;8936;49.010;12.120;2023-04-25T10:18:54;97223.69;;;13.44;100.00
17635;BME280;8936;49.010;12.120;2023-04-25T10:21:21;97223.09;;;13.47;100.00
17635;BME280;8936;49.010;12.120;2023-04-25T10:23:48;97220.00;;;13.53;100.00
17635;BME280;8936;49.010;12.120;2023-04-25T10:26:16;97219.91;;;13.59;100.00
17635;BME280;8936;49.010;12.120;2023-04-25T10:28:54;97213.84;;;13.39;100.00
17635;BME280;8936;49.010;12.120;2023-04-25T10:31:21;97222.06;;;13.16;100.00
17635;BME280;8936;49.010;12.120;2023-04-25T10:33:48;97227.22;;;13.12;100.00
17635;BME280;8936;49.010;12.120;2023-04-25T10:36:15;97242.66;;;13.02;100.00
17635;BME280;8936;49.010;12.120;2023-04-25T10:38:43;97230.03;;;12.56;100.00
17635;BME280;8936;49.010;12.120;2023-04-25T10:41:10;97230.06;;;12.70;100.00
17635;BME280;8936;49.010;12.120;2023-04-25T10:43:38;97231.44;;;12.67;100.00
17635;BME280;8936;49.010;12.120;2023-04-25T10:46:15;97235.09;;;12.39;100.00
17635;BME280;8936;49.010;12.120;2023-04-25T10:48:46;97235.19;;;12.34;100.00
17635;BME280;8936;49.010;12.120;2023-04-25T10:51:15;97239.69;;;12.71;100.00
17635;BME280;8936;49.010;12.120;2023-04-25T10:53:43;97235.13;;;12.71;100.00
17635;BME280;8936;49.010;12.120;2023-04-25T10:56:10;97235.78;;;12.63;100.00
17635;BME280;8936;49.010;12.120;2023-04-25T10:58:42;97226.31;;;12.71;100.00
17635;BME280;8936;49.010;12.120;2023-04-25T11:01:09;97222.44;;;12.77;100.00
17635;BME280;8936;49.010;12.120;2023-04-25T11:03:38;97224.38;;;12.90;100.00
17635;BME280;8936;49.010;12.120;2023-04-25T11:06:04;97220.81;;;12.94;100.00
17635;BME280;8936;49.010;12.120;2023-04-25T11:08:37;97231.59;;;13.08;100.00
17635;BME280;8936;49.010;12.120;2023-04-25T11:11:13;97237.56;;;12.86;100.00
17635;BME280;8936;49.010;12.120;2023-04-25T11:13:40;97231.59;;;13.22;100.00
17635;BME280;8936;49.010;12.120;2023-04-25T11:16:08;97232.94;;;13.51;100.00
17635;BME280;8936;49.010;12.120;2023-04-25T11:18:34;97235.22;;;13.58;99.94
17635;BME280;8936;49.010;12.120;2023-04-25T11:21:01;97233.03;;;13.33;89.82
17635;BME280;8936;49.010;12.120;2023-04-25T11:23:28;97236.50;;;13.33;91.38
17635;BME280;8936;49.010;12.120;2023-04-25T11:25:56;97225.38;;;13.26;90.60
17635;BME280;8936;49.010;12.120;2023-04-25T11:28:22;97229.22;;;13.34;94.16
17635;BME280;8936;49.010;12.120;2023-04-25T11:30:48;97233.44;;;13.40;90.89
17635;BME280;8936;49.010;12.120;2023-04-25T11:33:16;97233.91;;;13.42;90.40
17635;BME280;8936;49.010;12.120;2023-04-25T11:35:43;97240.53;;;13.31;92.36
17635;BME280;8936;49.010;12.120;2023-04-25T11:38:09;97232.91;;;13.38;93.40
17635;BME280;8936;49.010;12.120;2023-04-25T11:40:36;97229.84;;;13.44;88.27
17635;BME280;8936;49.010;12.120;2023-04-25T11:43:02;97231.13;;;13.47;87.21
17635;BME280;8936;49.010;12.120;2023-04-25T11:45:29;97238.59;;;13.64;87.18
17635;BME280;8936;49.010;12.120;2023-04-25T11:47:56;97225.25;;;13.86;87.58
17635;BME280;8936;49.010;12.120;2023-04-25T11:50:23;97216.69;;;13.97;79.86
17635;BME280;8936;49.010;12.120;2023-04-25T11:52:50;97215.97;;;14.05;82.65
17635;BME280;8936;49.010;12.120;2023-04-25T11:55:17;97229.56;;;14.23;83.29
17635;BME280;8936;49.010;12.120;2023-04-25T11:57:45;97214.72;;;14.39;80.39
17635;BME280;8936;49.010;12.120;2023-04-25T12:00:13;97222.88;;;14.34;80.08
17635;BME280;8936;49.010;12.120;2023-04-25T12:02:40;97215.41;;;14.44;75.49
17635;BME280;8936;49.010;12.120;2023-04-25T12:05:07;97224.94;;;14.50;78.08
17635;BME280;8936;49.010;12.120;2023-04-25T12:07:36;97221.31;;;14.55;75.83
17635;BME280;8936;49.010;12.120;2023-04-25T12:10:06;97210.94;;;14.62;75.91
17635;BME280;8936;49.010;12.120;2023-04-25T12:12:33;97218.72;;;14.64;71.16
17635;BME280;8936;49.010;12.120;2023-04-25T12:15:07;97215.22;;;14.63;70.10
17635;BME280;8936;49.010;12.120;2023-04-25T12:17:34;97207.59;;;14.79;70.68
17635;BME280;8936;49.010;12.120;2023-04-25T12:20:05;97211.41;;;14.64;64.59
17635;BME280;8936;49.010;12.120;2023-04-25T12:22:32;97204.06;;;14.47;65.70
17635;BME280;8936;49.010;12.120;2023-04-25T12:25:00;97205.81;;;14.52;64.23
17635;BME280;8936;49.010;12.120;2023-04-25T12:27:30;97215.63;;;14.34;64.24
17635;BME280;8936;49.010;12.120;2023-04-25T12:29:57;97230.16;;;14.33;65.68
17635;BME280;8936;49.010;12.120;2023-04-25T12:32:23;97225.00;;;14.23;66.77
17635;BME280;8936;49.010;12.120;2023-04-25T12:34:50;97227.44;;;13.84;67.27
17635;BME280;8936;49.010;12.120;2023-04-25T12:37:16;97224.88;;;13.92;70.93
17635;BME280;8936;49.010;12.120;2023-04-25T12:39:42;97227.59;;;14.15;71.97
17635;BME280;8936;49.010;12.120;2023-04-25T12:42:10;97228.16;;;14.39;71.49
17635;BME280;8936;49.010;12.120;2023-04-25T12:44:37;97233.41;;;14.30;68.59
17635;BME280;8936;49.010;12.120;2023-04-25T12:47:04;97243.69;;;14.15;64.77
17635;BME280;8936;49.010;12.120;2023-04-25T12:49:30;97242.94;;;14.14;65.58
17635;BME280;8936;49.010;12.120;2023-04-25T12:51:57;97245.16;;;14.21;67.96